KTMA/TMA METAR and TAF weather

Enter ICAO airport designator
Station Type Date Time Source
KTMA METAR 2019/02/22 22:15 UTC NOAA

KTMA 222215Z AUTO 16003KT 10SM BKN095 27/17 A3012 RMK AO2 T02700171


Station Type Date Time Source
KTMA Decoded METAR 2019/02/22 22:15 UTC NOAA

Station name not available
Feb 22, 2019 - 05:15 PM EST / 2019.02.22 2215 UTC
Wind: from the SSE (160 degrees) at 3 MPH (3 KT):0
Visibility: 10 mile(s):0
Sky conditions: mostly cloudy
Temperature: 80.6 F (27.0 C)
Dew Point: 62.8 F (17.1 C)
Relative Humidity: 54%
Pressure (altimeter): 30.12 in. Hg (1019 hPa)
ob: KTMA 222215Z AUTO 16003KT 10SM BKN095 27/17 A3012 RMK AO2 T02700171
cycle: 22

Station Type Date Time Source
KTMA TAF UTC NOAA

Error!


Example: see airport list